Time;durP1;ratioP1;P1;durP2;ratioP2;P2;SDS_P1;SDS_P2;PMS_P1;PMS_P2;Temp;Humidity;BMP_temperature;BMP_pressure;BME280_temperature;BME280_humidity;BME280_pressure;Samples;Min_cycle;Max_cycle;Signal;HPM_P1;HPM_P2
2023/02/24 00:02:03;;;;;;;33.05;11.50;;;;;;;5.69;93.75;95765.31;5015642;28;20046;-74
2023/02/24 00:04:32;;;;;;;39.05;12.25;;;;;;;5.70;94.03;95767.75;4996268;28;20047;-75
2023/02/24 00:07:00;;;;;;;31.88;11.80;;;;;;;5.73;93.70;95761.72;4996408;28;20453;-76
2023/02/24 00:09:29;;;;;;;31.70;11.30;;;;;;;5.74;93.90;95751.69;4997392;28;20556;-76
2023/02/24 00:11:58;;;;;;;29.23;10.32;;;;;;;5.74;93.67;95743.59;4996957;28;20050;-76
2023/02/24 00:14:27;;;;;;;40.63;11.45;;;;;;;5.71;93.84;95741.53;4993982;28;20113;-75
2023/02/24 00:16:54;;;;;;;29.10;10.65;;;;;;;5.71;93.92;95741.53;4995617;28;20109;-75
2023/02/24 00:19:23;;;;;;;32.35;11.15;;;;;;;5.68;93.83;95740.19;4994829;28;20054;-75
2023/02/24 00:21:53;;;;;;;30.92;10.30;;;;;;;5.72;93.70;95740.41;4994898;28;20442;-76
2023/02/24 00:24:20;;;;;;;35.00;11.50;;;;;;;5.72;93.75;95741.22;4995600;28;20049;-75
2023/02/24 00:26:53;;;;;;;34.50;11.15;;;;;;;5.73;93.62;95740.09;4994684;28;20039;-75
2023/02/24 00:29:20;;;;;;;31.83;10.63;;;;;;;5.73;93.46;95745.50;4994445;28;20137;-75
2023/02/24 00:31:49;;;;;;;35.05;10.43;;;;;;;5.74;92.96;95744.44;4995983;28;20411;-75
2023/02/24 00:34:15;;;;;;;32.38;10.40;;;;;;;5.75;92.79;95748.72;4995944;28;20053;-75
2023/02/24 00:36:42;;;;;;;26.10;9.98;;;;;;;5.74;92.71;95740.91;4993994;28;20038;-75
2023/02/24 00:39:11;;;;;;;29.00;10.00;;;;;;;5.65;92.71;95737.31;4993322;28;20057;-76
2023/02/24 00:41:42;;;;;;;35.75;10.45;;;;;;;5.57;93.29;95732.63;4995840;28;20081;-76
2023/02/24 00:44:10;;;;;;;30.77;10.02;;;;;;;5.55;93.13;95734.84;5000671;28;20133;-76
2023/02/24 00:46:39;;;;;;;36.70;10.35;;;;;;;5.56;93.34;95736.44;5001106;28;20048;-76
2023/02/24 00:49:09;;;;;;;28.95;10.18;;;;;;;5.60;93.20;95730.13;5000979;28;20053;-76
2023/02/24 00:51:37;;;;;;;34.08;10.50;;;;;;;5.62;93.05;95727.91;5001382;28;20049;-75
2023/02/24 00:54:05;;;;;;;35.00;9.82;;;;;;;5.67;92.77;95732.41;5000746;28;20050;-75
2023/02/24 00:56:33;;;;;;;36.45;11.07;;;;;;;5.69;92.89;95727.50;4998081;28;20042;-75
2023/02/24 00:59:01;;;;;;;25.88;9.68;;;;;;;5.71;93.02;95715.31;4995383;28;20086;-75
2023/02/24 01:01:31;;;;;;;32.97;10.80;;;;;;;5.68;92.83;95718.59;4979191;28;20038;-75
2023/02/24 01:03:59;;;;;;;39.38;10.05;;;;;;;5.61;93.14;95714.72;4994446;28;20455;-78
2023/02/24 01:06:28;;;;;;;18.77;8.80;;;;;;;5.57;93.14;95719.13;4997597;28;20038;-76
2023/02/24 01:08:57;;;;;;;31.80;10.07;;;;;;;5.51;93.23;95715.72;4997442;28;20070;-75
2023/02/24 01:14:13;;;;;;;35.67;10.57;;;;;;;5.43;93.53;95698.34;4996852;28;20132;-76
2023/02/24 01:16:40;;;;;;;34.78;10.02;;;;;;;5.35;94.08;95701.72;4997789;28;20046;-78
2023/02/24 01:19:08;;;;;;;25.35;8.73;;;;;;;5.31;94.09;95706.13;4997339;28;20070;-75
2023/02/24 01:21:35;;;;;;;41.40;10.60;;;;;;;5.29;94.58;95702.94;4993648;28;20073;-75
2023/02/24 01:24:02;;;;;;;33.67;10.15;;;;;;;5.28;94.66;95695.94;4993162;28;20050;-75
2023/02/24 01:26:29;;;;;;;40.13;10.27;;;;;;;5.28;94.69;95698.63;4993231;28;20046;-75
2023/02/24 01:28:56;;;;;;;40.92;10.35;;;;;;;5.27;94.96;95694.31;4993292;28;20047;-74
2023/02/24 01:31:24;;;;;;;32.05;10.45;;;;;;;5.32;94.37;95696.91;4992682;28;20045;-74
2023/02/24 01:33:51;;;;;;;50.63;12.07;;;;;;;5.33;94.03;95703.94;4993504;28;20047;-75
2023/02/24 01:36:19;;;;;;;34.80;10.10;;;;;;;5.36;93.99;95703.31;4993299;28;20051;-75
2023/02/24 01:38:48;;;;;;;26.55;9.20;;;;;;;5.37;93.96;95694.09;4993569;28;20134;-75
2023/02/24 01:41:17;;;;;;;32.97;10.23;;;;;;;5.41;94.02;95697.03;4993361;28;20133;-76
2023/02/24 01:44:00;;;;;;;58.90;13.00;;;;;;;5.45;93.87;95690.72;4993789;28;20050;-76
2023/02/24 01:46:31;;;;;;;29.90;9.02;;;;;;;5.53;93.99;95691.09;5004348;28;20068;-75
2023/02/24 01:49:07;;;;;;;33.25;9.55;;;;;;;5.61;93.41;95687.72;5012817;28;20511;-75
2023/02/24 01:51:38;;;;;;;32.15;9.50;;;;;;;5.65;93.33;95686.00;5012804;28;20049;-74
2023/02/24 01:54:07;;;;;;;30.58;9.20;;;;;;;5.65;93.41;95680.59;5012719;28;20593;-75
2023/02/24 01:56:34;;;;;;;27.65;9.05;;;;;;;5.65;93.21;95683.31;5013040;28;20140;-75
2023/02/24 01:59:05;;;;;;;29.63;9.07;;;;;;;5.66;93.09;95676.78;5012264;28;20052;-75
2023/02/24 02:01:39;;;;;;;39.38;10.07;;;;;;;5.62;93.09;95673.09;5011860;28;20052;-75
2023/02/24 02:04:13;;;;;;;32.88;9.57;;;;;;;5.55;93.50;95670.00;5004343;28;20052;-74
2023/02/24 02:06:40;;;;;;;25.15;9.32;;;;;;;5.46;93.48;95665.31;5012764;28;20137;-75
2023/02/24 02:09:06;;;;;;;27.98;9.25;;;;;;;5.36;93.41;95665.53;5012052;28;20041;-76
2023/02/24 02:11:33;;;;;;;30.10;9.55;;;;;;;5.34;93.75;95656.94;5012520;28;20042;-75
2023/02/24 02:14:00;;;;;;;24.25;9.25;;;;;;;5.31;93.30;95651.34;5012847;28;20057;-75
2023/02/24 02:16:40;;;;;;;36.78;9.93;;;;;;;5.25;93.40;95653.34;5011275;28;20092;-75
2023/02/24 02:19:29;;;;;;;32.22;9.15;;;;;;;5.23;93.21;95655.53;5011362;28;20046;-75
2023/02/24 02:22:16;;;;;;;34.53;9.18;;;;;;;5.20;93.27;95651.53;5011780;28;20120;-75
2023/02/24 02:24:52;;;;;;;36.55;8.98;;;;;;;5.18;93.14;95655.66;5011723;28;20073;-75
2023/02/24 02:27:38;;;;;;;23.85;8.55;;;;;;;5.16;93.01;95653.22;5011073;28;20054;-76
2023/02/24 02:30:42;;;;;;;29.55;9.68;;;;;;;5.10;93.58;95645.53;5013485;28;20543;-75
2023/02/24 02:33:56;;;;;;;28.63;9.25;;;;;;;5.12;94.15;95643.34;4997017;28;20046;-75
2023/02/24 02:36:31;;;;;;;27.85;8.75;;;;;;;5.18;93.93;95644.84;4992084;28;20429;-75
2023/02/24 02:39:06;;;;;;;25.23;8.95;;;;;;;5.24;93.68;95646.34;4992529;28;20409;-75
2023/02/24 02:41:42;;;;;;;33.42;10.32;;;;;;;5.27;93.85;95651.13;4991726;28;20402;-75
2023/02/24 02:44:14;;;;;;;24.15;8.95;;;;;;;5.28;93.88;95641.16;4991605;28;20054;-75
2023/02/24 02:46:45;;;;;;;22.80;8.48;;;;;;;5.32;93.65;95642.91;4992296;28;20053;-75
2023/02/24 02:49:17;;;;;;;24.95;8.57;;;;;;;5.32;93.38;95642.91;4973111;28;20522;-75
2023/02/24 02:51:51;;;;;;;31.08;8.75;;;;;;;5.28;93.29;95647.34;4976842;28;20064;-75
2023/02/24 02:54:27;;;;;;;34.40;8.48;;;;;;;5.33;93.06;95641.84;4991449;28;20100;-75
2023/02/24 02:57:00;;;;;;;32.25;8.57;;;;;;;5.36;93.07;95638.53;4992864;28;20046;-76
2023/02/24 02:59:30;;;;;;;29.83;8.25;;;;;;;5.42;92.91;95642.72;5011740;28;20050;-75
2023/02/24 03:02:10;;;;;;;18.90;7.55;;;;;;;5.44;92.67;95637.81;5011560;28;20050;-76
2023/02/24 03:04:41;;;;;;;23.40;7.35;;;;;;;5.44;92.75;95640.53;5010081;28;20556;-76
2023/02/24 03:07:11;;;;;;;24.15;7.38;;;;;;;5.38;92.27;95630.94;5010916;28;20050;-75
2023/02/24 03:09:41;;;;;;;28.25;7.97;;;;;;;5.37;92.25;95639.31;5011485;28;20041;-75
2023/02/24 03:12:11;;;;;;;30.40;7.95;;;;;;;5.36;92.44;95638.53;4977816;28;20420;-75
2023/02/24 03:14:39;;;;;;;33.75;7.88;;;;;;;5.39;91.98;95626.34;4991711;28;20046;-75
2023/02/24 03:17:09;;;;;;;31.98;7.35;;;;;;;5.40;92.06;95628.72;4991319;28;20109;-75
2023/02/24 03:19:39;;;;;;;32.63;7.90;;;;;;;5.36;91.71;95638.53;4991525;28;20050;-75
2023/02/24 03:22:13;;;;;;;30.48;8.25;;;;;;;5.36;92.02;95633.13;4991141;28;20042;-75
2023/02/24 03:24:40;;;;;;;34.03;8.13;;;;;;;4.93;94.58;95646.94;5010958;28;20054;-76
2023/02/24 03:27:13;;;;;;;26.05;7.93;;;;;;;4.94;94.56;95643.13;5010352;28;20071;-75
2023/02/24 03:29:44;;;;;;;21.48;7.13;;;;;;;5.07;94.54;95640.75;5010780;28;20069;-76
2023/02/24 03:32:17;;;;;;;25.15;7.85;;;;;;;5.16;94.21;95638.94;4999880;28;20074;-75
2023/02/24 03:34:51;;;;;;;18.55;7.30;;;;;;;5.25;93.43;95642.53;4979721;28;20057;-76
2023/02/24 03:37:25;;;;;;;23.90;8.32;;;;;;;5.06;94.20;95633.75;4976915;28;20046;-75
2023/02/24 03:39:53;;;;;;;21.75;7.65;;;;;;;5.19;93.96;95627.56;4991475;28;20046;-75
2023/02/24 03:42:21;;;;;;;21.10;7.10;;;;;;;5.27;93.37;95629.53;4990502;28;20151;-75
2023/02/24 03:44:48;;;;;;;21.17;7.60;;;;;;;5.26;93.48;95619.84;4990609;28;20395;-75
2023/02/24 03:47:19;;;;;;;25.38;7.88;;;;;;;5.17;93.61;95621.66;4990051;28;20590;-75
2023/02/24 03:49:45;;;;;;;20.85;7.68;;;;;;;5.20;93.58;95618.34;4990662;28;20047;-75
2023/02/24 03:52:27;;;;;;;15.68;6.70;;;;;;;5.16;93.63;95611.94;4990226;28;20046;-75
2023/02/24 03:55:12;;;;;;;17.42;7.32;;;;;;;5.08;93.68;95609.97;4990780;28;20056;-75
2023/02/24 03:57:54;;;;;;;18.30;6.80;;;;;;;5.01;93.54;95609.56;4990495;28;20046;-75
2023/02/24 04:00:33;;;;;;;19.88;7.60;;;;;;;4.92;94.02;95610.28;4990321;28;20093;-74
2023/02/24 04:03:07;;;;;;;15.73;6.75;;;;;;;4.85;94.03;95611.75;4991726;28;20046;-74
2023/02/24 04:05:46;;;;;;;14.40;6.50;;;;;;;4.83;94.16;95606.66;4992139;28;20043;-75
2023/02/24 04:08:19;;;;;;;14.88;7.03;;;;;;;4.80;94.40;95609.94;4991906;28;20054;-74
2023/02/24 04:10:52;;;;;;;15.80;7.05;;;;;;;4.78;94.32;95605.97;4994496;28;20090;-75
2023/02/24 04:13:21;;;;;;;;;;;;;;;4.70;94.42;95605.56;4998921;28;20046;-75
2023/02/24 04:15:56;;;;;;;16.55;7.13;;;;;;;4.70;94.22;95597.47;4999752;28;20373;-75
2023/02/24 04:18:26;;;;;;;20.58;7.93;;;;;;;4.70;93.89;95599.38;5001551;28;20110;-75
2023/02/24 04:20:55;;;;;;;16.80;7.25;;;;;;;4.69;93.79;95597.75;5003067;28;20058;-75
2023/02/24 04:23:26;;;;;;;19.73;7.55;;;;;;;4.68;93.42;95601.56;5001468;28;20062;-74
2023/02/24 04:25:55;;;;;;;17.83;7.43;;;;;;;4.54;93.18;95598.03;4996195;28;20050;-75
2023/02/24 04:28:27;;;;;;;17.23;7.07;;;;;;;4.65;92.88;95602.19;4994621;28;20116;-75
2023/02/24 04:30:58;;;;;;;24.48;7.68;;;;;;;4.70;92.69;95588.59;4994724;28;20046;-75
2023/02/24 04:33:25;;;;;;;20.60;7.22;;;;;;;4.64;92.69;95585.16;4993591;28;20047;-75
2023/02/24 04:35:52;;;;;;;17.80;7.03;;;;;;;4.71;92.27;95582.09;4994079;28;20451;-76
2023/02/24 04:38:19;;;;;;;21.70;8.02;;;;;;;4.66;92.06;95576.81;4993706;28;20054;-74
2023/02/24 04:40:48;;;;;;;18.40;7.15;;;;;;;4.66;91.88;95584.88;4994135;28;20065;-75
2023/02/24 04:43:15;;;;;;;19.65;6.90;;;;;;;4.45;92.42;95571.78;4993341;28;20129;-75
2023/02/24 04:45:41;;;;;;;21.80;7.05;;;;;;;4.42;92.54;95572.38;4993297;28;20505;-75
2023/02/24 04:48:11;;;;;;;17.63;7.25;;;;;;;4.35;93.04;95560.41;4993270;28;20406;-74
2023/02/24 04:50:40;;;;;;;20.30;7.03;;;;;;;4.16;93.87;95563.13;4993950;28;20058;-75
2023/02/24 04:53:10;;;;;;;17.85;6.55;;;;;;;4.17;93.84;95553.97;4993716;28;20133;-74
2023/02/24 04:55:39;;;;;;;15.82;6.93;;;;;;;4.03;94.82;95556.63;4993729;28;20042;-75
2023/02/24 04:58:07;;;;;;;20.67;6.95;;;;;;;4.11;94.80;95555.16;4993168;28;20050;-74
2023/02/24 05:00:34;;;;;;;17.45;7.07;;;;;;;4.13;94.38;95550.28;4994487;28;20431;-75
2023/02/24 05:03:02;;;;;;;18.48;7.22;;;;;;;4.11;94.45;95547.06;4993254;28;20453;-75
2023/02/24 05:05:32;;;;;;;18.48;6.95;;;;;;;4.13;94.54;95550.28;4993336;28;20049;-75
2023/02/24 05:08:01;;;;;;;10.00;5.63;;;;;;;4.12;93.96;95551.34;4995000;28;20457;-75
2023/02/24 05:10:30;;;;;;;15.90;6.43;;;;;;;4.13;93.77;95542.19;4994200;28;20046;-76
2023/02/24 05:12:59;;;;;;;18.23;6.45;;;;;;;4.16;93.41;95546.97;4995237;28;20050;-75
2023/02/24 05:15:30;;;;;;;12.88;6.50;;;;;;;4.16;93.59;95536.19;4995031;28;20509;-75
2023/02/24 05:17:58;;;;;;;14.38;6.45;;;;;;;4.13;93.64;95531.41;4995422;28;20050;-77
2023/02/24 05:23:10;;;;;;;17.75;6.75;;;;;;;4.03;93.67;95523.50;4998304;28;20133;-75
2023/02/24 05:25:37;;;;;;;20.58;7.20;;;;;;;3.98;94.14;95529.00;4994494;28;20502;-78
2023/02/24 05:28:04;;;;;;;19.60;7.07;;;;;;;3.62;95.66;95533.06;4999004;28;20461;-77
2023/02/24 05:30:34;;;;;;;21.48;7.63;;;;;;;3.68;95.93;95520.31;5000828;28;20046;-75
2023/02/24 05:33:01;;;;;;;19.40;6.68;;;;;;;3.71;95.64;95525.13;5000134;28;20046;-76
2023/02/24 05:35:28;;;;;;;16.13;6.70;;;;;;;3.71;95.34;95519.75;4991288;28;20047;-76
2023/02/24 05:37:57;;;;;;;21.38;7.25;;;;;;;3.70;94.84;95518.13;4980006;28;20062;-75
2023/02/24 05:40:25;;;;;;;19.85;7.47;;;;;;;3.67;94.97;95513.34;4976862;28;20043;-76
2023/02/24 05:42:52;;;;;;;17.55;6.85;;;;;;;3.65;95.04;95512.81;4991556;28;20141;-76
2023/02/24 05:45:18;;;;;;;18.17;6.43;;;;;;;3.63;94.88;95512.31;4995337;28;20053;-75
2023/02/24 05:47:47;;;;;;;20.77;7.03;;;;;;;3.62;94.65;95516.91;4995255;28;20042;-75
2023/02/24 05:50:13;;;;;;;16.35;6.38;;;;;;;3.58;94.09;95517.78;4994081;28;20275;-76
2023/02/24 05:52:40;;;;;;;17.60;6.30;;;;;;;3.55;94.07;95526.44;4993023;28;20050;-76
2023/02/24 05:55:12;;;;;;;19.50;6.65;;;;;;;3.53;94.11;95509.78;4992133;28;20058;-76
2023/02/24 05:57:40;;;;;;;16.02;6.03;;;;;;;3.50;94.42;95507.69;4992792;28;20050;-76
2023/02/24 06:00:15;;;;;;;26.63;7.57;;;;;;;3.29;96.38;95508.00;4991907;28;20528;-76
2023/02/24 06:02:48;;;;;;;22.15;6.88;;;;;;;3.31;96.71;95500.44;4991450;28;20054;-76
2023/02/24 06:05:24;;;;;;;20.45;6.72;;;;;;;3.40;96.12;95497.91;4991769;28;20046;-76
2023/02/24 06:07:59;;;;;;;20.02;6.60;;;;;;;3.43;95.63;95501.88;4992201;28;20038;-76
2023/02/24 06:10:30;;;;;;;17.40;6.72;;;;;;;3.22;96.85;95502.19;4992074;28;20078;-75
2023/02/24 06:12:56;;;;;;;24.17;7.05;;;;;;;3.26;97.10;95492.44;4991986;28;20077;-75
2023/02/24 06:15:23;;;;;;;28.80;7.10;;;;;;;3.32;96.81;95502.03;4991239;28;20042;-75
2023/02/24 06:17:49;;;;;;;30.63;7.38;;;;;;;3.46;96.49;95501.31;4991696;28;20046;-75
2023/02/24 06:20:17;;;;;;;34.88;7.30;;;;;;;3.61;95.96;95498.38;4990904;28;20050;-76
2023/02/24 06:22:44;;;;;;;27.02;7.35;;;;;;;3.74;95.41;95492.22;4991607;28;20042;-75
2023/02/24 06:25:11;;;;;;;28.30;7.07;;;;;;;3.86;94.67;95500.63;4991584;28;20072;-76
2023/02/24 06:27:38;;;;;;;28.77;7.68;;;;;;;3.93;94.40;95492.16;4991597;28;20198;-75
2023/02/24 06:30:09;;;;;;;24.52;6.75;;;;;;;4.05;94.11;95497.88;4991536;28;20585;-76
2023/02/24 06:32:36;;;;;;;22.60;6.97;;;;;;;3.72;94.70;95505.19;4991796;28;20104;-76
2023/02/24 06:35:02;;;;;;;23.80;7.32;;;;;;;3.88;94.12;95508.41;4990898;28;20413;-75
2023/02/24 06:37:30;;;;;;;27.88;7.13;;;;;;;3.89;94.18;95505.41;4992268;28;20050;-76
2023/02/24 06:39:57;;;;;;;12.65;6.05;;;;;;;3.81;94.28;95519.56;4991536;28;20054;-75
2023/02/24 06:42:23;;;;;;;21.02;6.30;;;;;;;3.69;95.17;95519.22;4991150;28;20042;-76
2023/02/24 06:44:50;;;;;;;20.45;7.07;;;;;;;3.90;95.01;95509.69;4991786;28;20105;-76
2023/02/24 06:47:17;;;;;;;20.25;6.40;;;;;;;4.13;93.81;95509.88;4991282;28;20054;-75
2023/02/24 06:49:43;;;;;;;25.50;6.80;;;;;;;4.32;93.47;95510.56;4990954;28;20125;-74
2023/02/24 06:52:17;;;;;;;20.73;6.60;;;;;;;4.49;93.13;95503.78;4993072;28;20061;-74
2023/02/24 06:54:47;;;;;;;17.83;6.65;;;;;;;4.55;92.77;95500.69;4994378;28;20046;-75
2023/02/24 06:57:14;;;;;;;21.08;7.38;;;;;;;4.42;92.09;95518.47;4994348;28;20052;-75
2023/02/24 06:59:41;;;;;;;24.90;6.72;;;;;;;4.23;93.35;95509.69;4995066;28;20058;-75
2023/02/24 07:02:10;;;;;;;17.70;7.03;;;;;;;4.20;93.89;95510.25;4993629;28;20137;-75
2023/02/24 07:04:42;;;;;;;24.63;7.65;;;;;;;3.95;95.51;95516.09;4994062;28;20669;-75
2023/02/24 07:07:12;;;;;;;22.17;7.47;;;;;;;3.91;96.72;95508.63;4993268;28;20046;-75
2023/02/24 07:09:40;;;;;;;23.92;7.47;;;;;;;4.02;97.07;95519.19;4990582;28;20053;-75
2023/02/24 07:12:09;;;;;;;21.20;7.60;;;;;;;4.16;95.80;95515.44;4990301;28;20069;-74
2023/02/24 07:14:37;;;;;;;22.63;7.45;;;;;;;4.02;96.23;95503.88;4991170;28;20042;-74
2023/02/24 07:17:04;;;;;;;33.08;9.02;;;;;;;4.01;97.17;95501.44;4989773;28;20046;-74
2023/02/24 07:19:32;;;;;;;29.63;8.75;;;;;;;3.89;97.99;95505.41;4987446;28;20115;-75
2023/02/24 07:22:00;;;;;;;32.17;8.35;;;;;;;3.92;98.63;95498.66;4989558;28;20038;-75
2023/02/24 07:24:34;;;;;;;22.00;8.15;;;;;;;3.97;98.51;95497.75;4991890;28;20500;-75
2023/02/24 07:27:03;;;;;;;21.55;8.35;;;;;;;4.09;98.07;95492.69;4992977;28;20050;-76
2023/02/24 07:29:33;;;;;;;31.13;8.05;;;;;;;4.35;97.39;95496.50;4991928;28;20057;-74
2023/02/24 07:32:02;;;;;;;20.88;6.90;;;;;;;4.49;96.40;95490.28;4992423;28;20513;-74
2023/02/24 07:34:29;;;;;;;29.70;8.00;;;;;;;4.50;95.47;95490.03;4992083;28;20046;-75
2023/02/24 07:36:57;;;;;;;20.58;7.10;;;;;;;4.50;95.46;95486.53;4992755;28;20047;-75
2023/02/24 07:39:24;;;;;;;27.25;8.25;;;;;;;4.75;95.10;95483.31;4990760;28;20402;-74
2023/02/24 07:41:51;;;;;;;25.13;7.50;;;;;;;4.90;93.87;95490.25;4990829;28;20058;-75
2023/02/24 07:44:20;;;;;;;31.88;8.75;;;;;;;4.83;93.55;95482.59;4990189;28;20056;-77
2023/02/24 07:46:48;;;;;;;22.67;8.18;;;;;;;4.83;94.06;95479.88;4990418;28;20051;-75
2023/02/24 07:49:18;;;;;;;23.65;8.15;;;;;;;4.90;93.55;95485.66;4990536;28;20134;-74
2023/02/24 07:51:51;;;;;;;34.03;8.93;;;;;;;5.11;93.67;95479.81;4994356;28;20050;-75
2023/02/24 07:54:17;;;;;;;30.98;8.48;;;;;;;4.93;92.78;95474.28;4992376;28;20050;-74
2023/02/24 07:56:55;;;;;;;34.13;8.73;;;;;;;4.94;93.82;95475.88;4994740;28;20057;-78
2023/02/24 07:59:22;;;;;;;34.53;8.00;;;;;;;5.05;93.90;95470.25;4994281;28;20104;-75
2023/02/24 08:01:50;;;;;;;38.38;8.63;;;;;;;5.05;92.52;95465.63;4995012;28;20081;-76
2023/02/24 08:04:19;;;;;;;40.88;9.05;;;;;;;4.94;93.49;95465.06;4993272;28;20564;-76
2023/02/24 08:06:49;;;;;;;20.92;7.18;;;;;;;4.87;93.82;95470.09;4976442;28;20069;-76
2023/02/24 08:09:19;;;;;;;37.10;8.38;;;;;;;4.82;93.81;95461.31;4974970;28;20102;-75
2023/02/24 08:11:50;;;;;;;37.80;8.77;;;;;;;4.92;93.53;95455.69;4975111;28;20039;-75
2023/02/24 08:14:18;;;;;;;44.15;9.02;;;;;;;5.06;93.39;95453.75;4976865;28;20043;-75
2023/02/24 08:16:46;;;;;;;32.83;7.75;;;;;;;5.19;93.10;95450.22;4994587;28;20053;-77
2023/02/24 08:19:19;;;;;;;23.42;7.32;;;;;;;5.49;91.83;95440.59;4994125;28;20062;-75
2023/02/24 08:21:49;;;;;;;23.58;7.72;;;;;;;5.50;90.90;95439.47;4994178;28;20093;-76
2023/02/24 08:24:17;;;;;;;30.17;8.90;;;;;;;5.51;90.52;95442.97;4993692;28;20054;-76
2023/02/24 08:26:45;;;;;;;28.13;8.57;;;;;;;5.33;91.30;95450.16;4994509;28;20050;-74
2023/02/24 08:29:12;;;;;;;23.90;7.93;;;;;;;5.48;91.88;95443.59;4993802;28;20122;-76
2023/02/24 08:31:38;;;;;;;42.28;9.05;;;;;;;5.57;91.55;95454.44;4993793;28;20641;-76
2023/02/24 08:34:05;;;;;;;26.65;9.02;;;;;;;5.72;90.78;95440.56;4981886;28;20045;-77
2023/02/24 08:36:33;;;;;;;32.45;8.98;;;;;;;5.63;91.78;95442.41;4974639;28;20046;-75
2023/02/24 08:38:59;;;;;;;28.88;9.30;;;;;;;5.69;92.14;95430.38;4974066;28;20518;-75
2023/02/24 08:41:43;;;;;;;28.35;9.15;;;;;;;5.80;92.44;95431.72;4979894;28;20550;-76
2023/02/24 08:44:11;;;;;;;31.13;8.88;;;;;;;5.69;92.07;95433.06;4993511;28;20078;-75
2023/02/24 08:46:40;;;;;;;38.30;9.43;;;;;;;5.71;91.55;95422.78;4993616;28;20058;-75
2023/02/24 08:49:09;;;;;;;27.95;8.60;;;;;;;5.62;91.72;95419.22;4993256;28;20054;-75
2023/02/24 08:51:42;;;;;;;34.90;8.75;;;;;;;5.70;91.87;95423.88;4993763;28;20048;-75
2023/02/24 08:54:14;;;;;;;25.67;8.32;;;;;;;5.83;91.40;95420.28;4993077;28;20046;-75
2023/02/24 08:56:42;;;;;;;30.17;9.10;;;;;;;5.84;91.13;95416.47;4993613;28;20058;-77
2023/02/24 08:59:27;;;;;;;27.30;9.25;;;;;;;5.85;91.34;95415.38;4993105;28;20054;-76
2023/02/24 09:02:16;;;;;;;28.42;8.40;;;;;;;6.06;91.39;95417.59;4992953;28;20417;-75
2023/02/24 09:04:43;;;;;;;38.88;10.00;;;;;;;6.33;89.92;95416.56;4993008;28;20057;-77
2023/02/24 09:07:15;;;;;;;23.88;8.00;;;;;;;6.43;89.66;95411.66;4993037;28;20074;-77
2023/02/24 09:09:42;;;;;;;29.42;8.43;;;;;;;6.51;88.84;95418.19;4994115;28;20046;-76
2023/02/24 09:12:11;;;;;;;23.65;8.75;;;;;;;6.53;89.32;95416.78;4993313;28;20490;-77
2023/02/24 09:14:37;;;;;;;23.05;8.82;;;;;;;6.74;89.01;95421.59;4993993;28;20064;-78
2023/02/24 09:17:09;;;;;;;29.15;9.00;;;;;;;6.84;88.79;95412.34;4993730;28;20498;-76
2023/02/24 09:22:31;;;;;;;18.80;8.45;;;;;;;7.04;87.91;95414.44;5002611;28;20108;-74
2023/02/24 09:27:41;;;;;;;29.17;9.68;;;;;;;7.05;87.56;95406.03;5000504;28;20042;-76
2023/02/24 09:30:24;;;;;;;28.63;9.05;;;;;;;6.92;87.20;95400.75;5000485;28;20050;-75
2023/02/24 09:32:59;;;;;;;24.48;8.73;;;;;;;6.96;87.38;95399.81;5000153;28;20046;-76
2023/02/24 09:35:29;;;;;;;29.83;9.55;;;;;;;7.19;87.11;95399.63;5000461;28;20046;-76
2023/02/24 09:38:04;;;;;;;29.23;10.25;;;;;;;6.93;87.99;95391.50;4998025;28;20096;-76
2023/02/24 09:40:47;;;;;;;30.33;9.35;;;;;;;6.83;88.99;95389.91;4995214;28;20046;-76
2023/02/24 09:43:17;;;;;;;35.22;10.35;;;;;;;7.14;88.87;95378.94;4994263;28;20058;-76
2023/02/24 09:46:00;;;;;;;42.80;10.68;;;;;;;7.58;87.49;95369.63;4995702;28;20058;-77
2023/02/24 09:48:42;;;;;;;32.93;10.30;;;;;;;7.79;85.44;95377.06;4997480;28;20042;-78
2023/02/24 09:51:20;;;;;;;28.50;9.88;;;;;;;7.96;85.29;95371.59;4997288;28;20498;-76
2023/02/24 09:53:52;;;;;;;38.33;10.45;;;;;;;8.18;84.37;95372.44;4997568;28;20047;-76
2023/02/24 09:56:28;;;;;;;21.27;9.77;;;;;;;7.88;85.33;95364.25;4994307;28;20605;-74
2023/02/24 09:59:09;;;;;;;31.58;11.40;;;;;;;8.06;84.61;95349.53;4993772;28;20077;-76
2023/02/24 10:01:43;;;;;;;33.08;11.32;;;;;;;8.21;84.02;95352.81;4992818;28;20053;-77
2023/02/24 10:04:31;;;;;;;34.92;11.50;;;;;;;8.52;83.38;95347.09;4986990;28;20464;-77
2023/02/24 10:07:04;;;;;;;38.45;11.05;;;;;;;8.95;81.20;95349.50;4973540;28;20047;-75
2023/02/24 10:09:35;;;;;;;31.05;11.55;;;;;;;9.03;80.55;95354.06;4991781;28;20049;-76
2023/02/24 10:12:10;;;;;;;32.55;10.70;;;;;;;8.81;82.83;95349.75;4991058;28;20046;-76
2023/02/24 10:14:45;;;;;;;36.60;12.32;;;;;;;8.61;82.42;95343.19;4991093;28;20050;-76
2023/02/24 10:20:12;;;;;;;32.58;11.45;;;;;;;8.82;81.79;95339.69;4991925;28;20132;-76
2023/02/24 10:22:49;;;;;;;30.88;10.82;;;;;;;8.84;81.57;95332.00;5005212;28;20073;-77
2023/02/24 10:25:38;;;;;;;30.85;11.40;;;;;;;9.08;82.33;95331.31;5011703;28;20042;-76
2023/02/24 10:28:16;;;;;;;40.08;11.55;;;;;;;9.19;81.03;95331.69;5010820;28;20042;-77
2023/02/24 10:31:00;;;;;;;37.03;12.77;;;;;;;9.24;80.04;95328.78;5011720;28;20053;-76
2023/02/24 10:33:28;;;;;;;;;;;;;;;9.51;78.93;95325.50;5011330;28;20037;-74
2023/02/24 10:36:07;;;;;;;31.73;11.07;;;;;;;9.36;79.52;95315.25;5010928;28;19948;-74
2023/02/24 10:38:35;;;;;;;37.22;11.82;;;;;;;9.47;79.87;95316.41;4993149;28;20136;-75
2023/02/24 10:41:05;;;;;;;34.20;11.13;;;;;;;9.37;79.86;95312.19;5010681;28;20048;-74
2023/02/24 10:43:44;;;;;;;34.75;11.98;;;;;;;9.36;81.14;95315.25;5010997;28;20096;-77
2023/02/24 10:46:21;;;;;;;48.10;12.73;;;;;;;9.61;79.21;95308.75;4992604;28;20072;-77
2023/02/24 10:48:59;;;;;;;27.00;11.43;;;;;;;9.77;78.71;95305.38;5011558;28;20041;-76
2023/02/24 10:51:30;;;;;;;31.83;11.07;;;;;;;10.00;78.24;95295.63;5010654;28;20038;-76
2023/02/24 10:54:21;;;;;;;35.30;11.45;;;;;;;10.20;76.98;95293.94;5010800;28;20136;-76
2023/02/24 10:57:06;;;;;;;32.78;12.50;;;;;;;10.25;77.00;95290.22;5004977;28;20048;-77
2023/02/24 11:00:18;;;;;;;39.45;11.82;;;;;;;10.25;76.66;95290.22;5013195;28;20038;-77
2023/02/24 11:02:55;;;;;;;42.50;12.90;;;;;;;9.92;78.24;95288.41;5012000;28;20141;-77
2023/02/24 11:05:37;;;;;;;34.60;12.02;;;;;;;9.91;78.74;95286.78;5011773;28;20163;-78
2023/02/24 11:08:14;;;;;;;36.85;13.10;;;;;;;9.76;78.97;95287.47;5012321;28;20053;-75
2023/02/24 11:10:52;;;;;;;35.88;13.02;;;;;;;10.01;78.43;95274.69;5012220;28;20049;-77
2023/02/24 11:19:06;;;;;;;37.92;12.70;;;;;;;9.65;79.34;95257.22;4990632;28;20049;-76
2023/02/24 11:21:33;;;;;;;35.88;12.45;;;;;;;9.78;79.39;95255.31;4999595;28;20057;-76
2023/02/24 11:24:01;;;;;;;45.95;13.68;;;;;;;9.86;79.80;95246.22;5017504;28;20045;-75
2023/02/24 11:26:34;;;;;;;39.47;13.52;;;;;;;9.77;80.96;95253.72;5010731;28;20034;-77
2023/02/24 11:29:18;;;;;;;36.65;11.73;;;;;;;9.73;80.20;95242.72;5006074;28;20050;-77
2023/02/24 11:32:08;;;;;;;54.83;14.93;;;;;;;9.84;79.62;95232.19;5010168;28;20398;-76
2023/02/24 11:34:48;;;;;;;38.45;12.95;;;;;;;9.90;79.33;95226.19;5012102;28;20041;-76
2023/02/24 11:37:23;;;;;;;36.72;12.55;;;;;;;9.94;79.07;95227.09;5013099;28;20245;-76
2023/02/24 11:39:58;;;;;;;34.40;12.15;;;;;;;9.96;79.35;95224.03;5012911;28;20077;-76
2023/02/24 11:42:30;;;;;;;29.60;12.75;;;;;;;9.57;78.60;95218.16;5013656;28;20049;-77
2023/02/24 11:45:02;;;;;;;37.58;12.90;;;;;;;9.44;79.93;95208.38;5014087;28;20103;-75
2023/02/24 11:47:36;;;;;;;35.28;13.00;;;;;;;9.26;80.98;95212.44;5014894;28;20042;-77
2023/02/24 11:50:25;;;;;;;39.20;12.65;;;;;;;9.15;83.39;95206.66;5016198;28;20074;-75
2023/02/24 11:52:55;;;;;;;45.75;13.45;;;;;;;8.97;84.81;95195.19;4998811;28;20138;-76
2023/02/24 11:55:33;;;;;;;59.78;14.43;;;;;;;8.96;84.74;95195.53;5014979;28;20046;-76
2023/02/24 11:58:02;;;;;;;41.05;13.75;;;;;;;9.06;84.53;95187.75;5020734;28;20034;-76
2023/02/24 12:00:33;;;;;;;56.33;15.25;;;;;;;9.20;84.17;95178.50;5017166;28;20402;-75
2023/02/24 12:03:06;;;;;;;42.28;14.43;;;;;;;9.31;83.49;95177.72;5015765;28;20034;-75
2023/02/24 12:05:36;;;;;;;44.85;14.63;;;;;;;9.40;82.74;95174.91;5013927;28;20066;-76
2023/02/24 12:08:10;;;;;;;75.88;15.68;;;;;;;9.39;81.94;95165.94;5012135;28;20050;-77
2023/02/24 12:10:46;;;;;;;53.97;14.85;;;;;;;9.57;80.49;95166.50;5018494;28;20042;-75
2023/02/24 12:13:19;;;;;;;57.40;14.48;;;;;;;9.70;79.19;95167.28;5011037;28;20092;-75